Time;durP1;ratioP1;P1;durP2;ratioP2;P2;SDS_P1;SDS_P2;PMS_P1;PMS_P2;Temp;Humidity;BMP_temperature;BMP_pressure;BME280_temperature;BME280_humidity;BME280_pressure;Samples;Min_cycle;Max_cycle;Signal;HPM_P1;HPM_P2
2022/05/30 00:01:06;;;;;;;;;;;;;;;12.15;65.86;99598.25;105400;1276;125412;-70
2022/05/30 00:03:33;;;;;;;;;;;;;;;12.14;65.89;99592.92;106084;1276;97607;-73
2022/05/30 00:06:01;;;;;;;;;;;;;;;12.13;65.94;99589.48;107077;1276;96008;-72
2022/05/30 00:08:28;;;;;;;;;;;;;;;12.10;66.03;99583.83;105899;1275;126004;-72
2022/05/30 00:10:56;;;;;;;;;;;;;;;12.11;66.22;99577.04;105530;1276;97885;-72
2022/05/30 00:13:23;;;;;;;;;;;;;;;12.11;66.15;99579.30;106946;1275;124980;-73
2022/05/30 00:15:51;;;;;;;;;;;;;;;12.08;66.33;99580.98;107014;1276;97997;-73
2022/05/30 00:18:18;;;;;;;;;;;;;;;12.09;66.33;99577.30;106980;1276;96222;-73
2022/05/30 00:20:47;;;;;;;;;;;;;;;12.10;66.39;99572.33;106940;1276;124711;-73
2022/05/30 00:23:15;;;;;;;;;;;;;;;12.13;66.43;99568.73;107018;1274;105805;-73
2022/05/30 00:25:43;;;;;;;;;;;;;;;12.15;66.49;99569.84;106949;1276;125966;-73
2022/05/30 00:28:11;;;;;;;;;;;;;;;12.16;66.28;99570.67;105851;1276;97889;-72
2022/05/30 00:30:38;;;;;;;;;;;;;;;12.15;66.20;99565.68;105534;1276;97858;-71
2022/05/30 00:33:06;;;;;;;;;;;;;;;12.11;66.32;99567.27;105412;1276;124792;-72
2022/05/30 00:35:34;;;;;;;;;;;;;;;12.08;66.35;99567.77;105572;1276;108911;-72
2022/05/30 00:38:01;;;;;;;;;;;;;;;12.06;66.34;99570.44;105409;1276;127452;-72
2022/05/30 00:40:28;;;;;;;;;;;;;;;12.06;66.53;99563.87;105426;1276;97991;-73
2022/05/30 00:42:56;;;;;;;;;;;;;;;12.04;66.62;99562.70;105573;1276;97836;-72
2022/05/30 00:45:24;;;;;;;;;;;;;;;12.04;66.74;99564.11;105346;1276;125474;-71
2022/05/30 00:47:53;;;;;;;;;;;;;;;12.03;66.73;99561.73;105511;1276;108901;-72
2022/05/30 00:50:21;;;;;;;;;;;;;;;12.05;66.90;99558.86;105430;1276;125073;-73
2022/05/30 00:52:48;;;;;;;;;;;;;;;12.07;66.94;99552.98;105560;1276;97888;-72
2022/05/30 00:55:18;;;;;;;;;;;;;;;12.09;66.84;99546.60;106930;1276;125934;-72
2022/05/30 00:57:47;;;;;;;;;;;;;;;12.10;66.75;99545.20;106134;1276;111426;-73
2022/05/30 01:00:17;;;;;;;;;;;;;;;12.10;66.79;99544.30;105555;1276;108350;-71
2022/05/30 01:02:45;;;;;;;;;;;;;;;12.12;66.88;99539.70;106497;1276;125198;-71
2022/05/30 01:08:03;;;;;;;;;;;;;;;12.06;66.97;99537.02;105479;1276;126213;-72
2022/05/30 01:10:30;;;;;;;;;;;;;;;12.03;66.90;99529.86;105439;1276;112573;-72
2022/05/30 01:12:58;;;;;;;;;;;;;;;12.00;66.95;99523.52;105487;1278;108906;-72
2022/05/30 01:15:29;;;;;;;;;;;;;;;11.97;67.10;99524.52;105329;1276;124852;-72
2022/05/30 01:18:01;;;;;;;;;;;;;;;11.95;67.28;99521.33;105311;1279;97892;-72
2022/05/30 01:20:35;;;;;;;;;;;;;;;11.93;67.47;99514.86;105375;1276;124925;-72
2022/05/30 01:23:11;;;;;;;;;;;;;;;11.93;67.69;99505.45;106105;1277;112511;-71
2022/05/30 01:25:53;;;;;;;;;;;;;;;11.90;67.66;99505.77;105427;1276;126356;-73
2022/05/30 01:28:37;;;;;;;;;;;;;;;11.89;67.66;99512.77;105517;1275;108449;-73
2022/05/30 01:31:05;;;;;;;;;;;;;;;11.88;67.28;99513.36;106934;1276;125170;-72
2022/05/30 01:33:33;;;;;;;;;;;;;;;11.87;66.97;99504.70;106773;1276;96366;-73
2022/05/30 01:36:00;;;;;;;;;;;;;;;11.88;66.65;99502.73;105443;1276;112613;-72
2022/05/30 01:38:28;;;;;;;;;;;;;;;11.94;66.73;99501.91;105329;1276;125224;-71
2022/05/30 01:40:56;;;;;;;;;;;;;;;11.99;66.83;99502.14;105516;1276;107618;-72
2022/05/30 01:43:25;;;;;;;;;;;;;;;12.03;66.89;99504.76;105397;1276;125204;-72
2022/05/30 01:46:03;;;;;;;;;;;;;;;12.03;66.99;99498.80;105570;1276;97867;-72
2022/05/30 01:48:30;;;;;;;;;;;;;;;12.04;67.06;99499.66;105471;1276;112087;-72
2022/05/30 01:51:00;;;;;;;;;;;;;;;12.04;67.51;99499.27;105373;1276;126863;-72
2022/05/30 01:53:29;;;;;;;;;;;;;;;12.06;67.64;99496.23;105474;1279;108940;-72
2022/05/30 01:56:29;;;;;;;;;;;;;;;12.08;67.77;99499.08;105175;1279;125217;-72
2022/05/30 01:59:02;;;;;;;;;;;;;;;12.10;67.89;99498.64;105653;1279;97853;-71
2022/05/30 02:01:50;;;;;;;;;;;;;;;12.09;67.75;99498.16;105479;1276;125575;-72
2022/05/30 02:04:18;;;;;;;;;;;;;;;12.05;67.80;99495.94;106986;1276;107979;-73
2022/05/30 02:06:46;;;;;;;;;;;;;;;12.00;67.94;99496.36;105607;1276;108821;-72
2022/05/30 02:09:14;;;;;;;;;;;;;;;11.95;68.03;99494.70;105446;1276;126696;-72
2022/05/30 02:11:41;;;;;;;;;;;;;;;11.90;68.21;99498.25;105463;1278;97830;-73
2022/05/30 02:14:29;;;;;;;;;;;;;;;11.84;68.50;99493.85;105229;1281;126850;-72
2022/05/30 02:17:04;;;;;;;;;;;;;;;11.78;68.73;99495.86;105545;1276;109619;-71
2022/05/30 02:19:33;;;;;;;;;;;;;;;11.77;68.77;99501.13;105468;1276;125088;-71
2022/05/30 02:22:06;;;;;;;;;;;;;;;11.75;68.93;99505.41;105409;1276;97894;-72
2022/05/30 02:24:35;;;;;;;;;;;;;;;11.77;69.19;99521.00;105535;1276;97853;-71
2022/05/30 02:27:04;;;;;;;;;;;;;;;11.69;69.17;99523.97;105457;1276;124814;-73
2022/05/30 02:29:32;;;;;;;;;;;;;;;11.58;68.81;99515.62;106933;1276;110551;-72
2022/05/30 02:31:59;;;;;;;;;;;;;;;11.57;68.98;99509.08;106771;1275;125089;-72
2022/05/30 02:37:13;;;;;;;;;;;;;;;11.58;69.79;99529.05;106770;1276;125248;-70
2022/05/30 02:39:41;;;;;;;;;;;;;;;11.56;69.47;99522.38;106926;1276;112472;-71
2022/05/30 02:42:28;;;;;;;;;;;;;;;11.55;69.38;99529.73;105627;1276;108988;-72
2022/05/30 02:44:55;;;;;;;;;;;;;;;11.52;69.43;99529.18;105398;1276;125445;-71
2022/05/30 02:47:23;;;;;;;;;;;;;;;11.49;69.71;99525.48;105505;1276;97923;-71
2022/05/30 02:49:58;;;;;;;;;;;;;;;11.46;69.52;99524.55;105467;1276;128479;-71
2022/05/30 02:52:26;;;;;;;;;;;;;;;11.41;69.76;99528.99;105342;1280;112749;-72
2022/05/30 02:54:54;;;;;;;;;;;;;;;11.35;69.88;99522.98;105489;1276;107901;-71
2022/05/30 02:57:33;;;;;;;;;;;;;;;11.30;69.85;99527.03;106858;1276;109306;-72
2022/05/30 03:00:01;;;;;;;;;;;;;;;11.24;70.01;99530.31;106922;1276;96282;-72
2022/05/30 03:02:30;;;;;;;;;;;;;;;11.18;70.16;99525.67;106807;1276;125068;-72
2022/05/30 03:04:58;;;;;;;;;;;;;;;11.15;70.25;99519.58;106864;1276;112431;-72
2022/05/30 03:07:26;;;;;;;;;;;;;;;11.15;70.22;99518.52;106907;1276;125885;-72
2022/05/30 03:09:53;;;;;;;;;;;;;;;11.15;70.22;99520.65;106829;1276;109284;-73
2022/05/30 03:12:40;;;;;;;;;;;;;;;11.11;70.45;99527.75;105437;1276;97844;-71
2022/05/30 03:15:09;;;;;;;;;;;;;;;11.09;70.75;99531.30;105469;1276;125335;-70
2022/05/30 03:17:37;;;;;;;;;;;;;;;11.10;70.71;99531.63;106879;1276;111675;-72
2022/05/30 03:20:06;;;;;;;;;;;;;;;11.09;70.45;99533.91;106776;1276;125623;-72
2022/05/30 03:22:33;;;;;;;;;;;;;;;11.06;70.42;99534.39;106866;1276;109368;-72
2022/05/30 03:25:25;;;;;;;;;;;;;;;11.06;70.49;99531.48;106682;1276;125087;-72
2022/05/30 03:27:54;;;;;;;;;;;;;;;11.05;70.65;99527.36;106814;1276;96213;-72
2022/05/30 03:30:22;;;;;;;;;;;;;;;11.06;71.01;99527.29;106764;1276;112551;-71
2022/05/30 03:32:50;;;;;;;;;;;;;;;11.09;71.32;99525.73;106778;1276;125104;-71
2022/05/30 03:35:18;;;;;;;;;;;;;;;11.11;71.01;99528.59;106701;1278;109037;-71
2022/05/30 03:37:52;;;;;;;;;;;;;;;11.10;70.82;99532.31;106702;1276;125363;-72
2022/05/30 03:40:46;;;;;;;;;;;;;;;11.05;70.64;99528.21;107053;1276;96547;-71
2022/05/30 03:43:46;;;;;;;;;;;;;;;11.07;71.17;99526.90;106078;1276;124922;-72
2022/05/30 03:46:13;;;;;;;;;;;;;;;11.12;71.46;99527.72;105453;1276;108461;-72
2022/05/30 03:48:43;;;;;;;;;;;;;;;11.17;71.74;99522.64;106233;1276;108801;-71
2022/05/30 03:51:12;;;;;;;;;;;;;;;11.21;71.99;99519.66;105405;1276;125872;-71
2022/05/30 03:53:40;;;;;;;;;;;;;;;11.26;72.14;99521.17;107010;1276;96197;-72
2022/05/30 03:56:08;;;;;;;;;;;;;;;11.29;72.20;99523.63;105682;1276;126125;-72
2022/05/30 03:58:36;;;;;;;;;;;;;;;11.32;72.14;99521.41;105408;1276;109858;-69
2022/05/30 04:01:05;;;;;;;;;;;;;;;11.36;72.37;99526.45;105564;1275;108471;-71
2022/05/30 04:03:34;;;;;;;;;;;;;;;11.38;72.44;99527.73;106455;1279;96238;-72
2022/05/30 04:06:03;;;;;;;;;;;;;;;11.40;72.58;99531.81;107061;1276;96293;-72
2022/05/30 04:08:31;;;;;;;;;;;;;;;11.40;72.64;99527.63;106531;1276;125348;-71
2022/05/30 04:11:17;;;;;;;;;;;;;;;11.45;72.61;99524.95;105576;1276;108097;-72
2022/05/30 04:14:08;;;;;;;;;;;;;;;11.48;72.49;99520.29;106325;1276;125023;-72
2022/05/30 04:17:11;;;;;;;;;;;;;;;11.47;72.18;99522.23;106725;1276;96594;-72
2022/05/30 04:19:39;;;;;;;;;;;;;;;11.48;72.03;99519.06;106310;1276;125194;-72
2022/05/30 04:22:07;;;;;;;;;;;;;;;11.52;72.26;99516.96;105644;1276;112061;-72
2022/05/30 04:24:55;;;;;;;;;;;;;;;11.58;72.53;99512.70;105660;1276;109167;-70
2022/05/30 04:27:23;;;;;;;;;;;;;;;11.60;72.61;99504.42;105891;1276;124761;-71
2022/05/30 04:29:51;;;;;;;;;;;;;;;11.65;72.81;99505.35;105599;1276;98145;-71
2022/05/30 04:32:30;;;;;;;;;;;;;;;11.69;72.83;99498.90;105508;1276;125094;-71
2022/05/30 04:34:58;;;;;;;;;;;;;;;11.67;72.30;99491.70;105557;1276;112167;-72
2022/05/30 04:37:27;;;;;;;;;;;;;;;11.61;71.74;99494.06;105331;1279;126206;-71
2022/05/30 04:40:07;;;;;;;;;;;;;;;11.60;72.02;99495.17;105797;1278;109187;-71
2022/05/30 04:42:57;;;;;;;;;;;;;;;11.63;72.01;99491.67;106180;1276;97878;-71
2022/05/30 04:45:43;;;;;;;;;;;;;;;11.65;72.00;99490.38;105589;1276;98265;-73
2022/05/30 04:48:17;;;;;;;;;;;;;;;11.64;72.33;99487.29;106909;1276;112590;-71
2022/05/30 04:50:45;;;;;;;;;;;;;;;11.59;72.16;99486.70;105587;1276;125777;-73
2022/05/30 04:53:13;;;;;;;;;;;;;;;11.56;72.29;99484.90;105680;1277;108750;-72
2022/05/30 04:56:03;;;;;;;;;;;;;;;11.58;72.55;99485.89;105331;1276;125211;-72
2022/05/30 04:58:39;;;;;;;;;;;;;;;11.59;72.49;99482.35;107046;1276;96094;-71
2022/05/30 05:01:15;;;;;;;;;;;;;;;11.61;72.58;99483.30;106783;1276;124859;-72
2022/05/30 05:03:43;;;;;;;;;;;;;;;11.57;72.35;99480.54;105726;1276;107678;-72
2022/05/30 05:06:12;;;;;;;;;;;;;;;11.59;72.56;99482.70;105482;1276;108047;-72
2022/05/30 05:08:43;;;;;;;;;;;;;;;11.61;72.58;99481.02;105457;1276;124908;-71
2022/05/30 05:11:31;;;;;;;;;;;;;;;11.64;72.66;99484.34;105652;1276;97834;-73
2022/05/30 05:14:18;;;;;;;;;;;;;;;11.67;72.55;99490.29;105532;1276;124694;-72
2022/05/30 05:17:06;;;;;;;;;;;;;;;11.71;72.56;99494.81;105512;1276;108541;-71
2022/05/30 05:19:34;;;;;;;;;;;;;;;11.72;72.46;99493.53;106908;1276;125109;-72
2022/05/30 05:22:01;;;;;;;;;;;;;;;11.74;72.50;99497.64;105550;1276;97884;-70
2022/05/30 05:24:31;;;;;;;;;;;;;;;11.76;72.49;99498.40;105608;1276;97804;-72
2022/05/30 05:27:15;;;;;;;;;;;;;;;11.74;72.70;99498.34;105414;1276;124875;-72
2022/05/30 05:29:42;;;;;;;;;;;;;;;11.72;72.65;99497.73;105455;1276;108316;-72
2022/05/30 05:32:10;;;;;;;;;;;;;;;11.66;72.68;99495.05;106068;1276;125393;-72
2022/05/30 05:34:38;;;;;;;;;;;;;;;11.64;73.05;99497.58;106697;1279;96277;-71
2022/05/30 05:37:06;;;;;;;;;;;;;;;11.63;73.01;99497.64;106832;1276;124713;-72
2022/05/30 05:39:40;;;;;;;;;;;;;;;11.65;73.45;99498.58;106171;1276;111600;-72
2022/05/30 05:42:13;;;;;;;;;;;;;;;11.67;73.55;99496.23;105451;1277;107820;-72
2022/05/30 05:44:41;;;;;;;;;;;;;;;11.69;73.75;99495.46;105484;1276;125956;-71
2022/05/30 05:47:09;;;;;;;;;;;;;;;11.72;73.67;99492.84;105575;1276;98498;-71
2022/05/30 05:49:37;;;;;;;;;;;;;;;11.75;73.67;99492.89;105483;1276;124861;-72
2022/05/30 05:52:06;;;;;;;;;;;;;;;11.77;73.72;99490.83;105589;1276;112528;-72
2022/05/30 05:54:34;;;;;;;;;;;;;;;11.80;73.49;99487.23;106743;1276;107777;-70
2022/05/30 05:57:03;;;;;;;;;;;;;;;11.84;73.55;99484.45;106532;1277;125374;-71
2022/05/30 05:59:52;;;;;;;;;;;;;;;11.88;73.54;99485.80;106632;1279;97216;-72
2022/05/30 06:02:20;;;;;;;;;;;;;;;11.94;73.65;99485.37;106827;1270;125245;-72
2022/05/30 06:04:51;;;;;;;;;;;;;;;11.97;73.37;99481.52;105777;1276;111622;-72
2022/05/30 06:07:39;;;;;;;;;;;;;;;12.01;73.23;99481.52;105436;1276;125207;-72
2022/05/30 06:10:19;;;;;;;;;;;;;;;12.03;73.48;99482.42;105686;1274;108621;-73
2022/05/30 06:12:58;;;;;;;;;;;;;;;12.06;73.25;99481.95;105665;1274;97835;-72
2022/05/30 06:15:28;;;;;;;;;;;;;;;12.08;73.28;99478.85;105450;1275;124627;-71
2022/05/30 06:18:06;;;;;;;;;;;;;;;12.14;73.21;99480.86;105638;1277;112078;-72
2022/05/30 06:20:41;;;;;;;;;;;;;;;12.16;73.16;99476.75;106912;1276;125688;-72
2022/05/30 06:23:09;;;;;;;;;;;;;;;12.18;73.27;99476.79;107001;1275;107759;-73
2022/05/30 06:26:07;;;;;;;;;;;;;;;12.24;73.27;99477.21;106399;1275;124957;-73
2022/05/30 06:28:47;;;;;;;;;;;;;;;12.29;73.52;99476.79;107066;1276;96460;-74
2022/05/30 06:31:16;;;;;;;;;;;;;;;12.33;73.78;99472.73;106886;1275;125054;-75
2022/05/30 06:33:47;;;;;;;;;;;;;;;12.37;73.72;99473.05;106038;1276;106969;-75
2022/05/30 06:36:23;;;;;;;;;;;;;;;12.42;73.54;99474.05;105503;1275;108387;-74
2022/05/30 06:38:51;;;;;;;;;;;;;;;12.44;73.35;99476.38;105501;1274;124916;-75
2022/05/30 06:41:32;;;;;;;;;;;;;;;12.47;73.46;99474.79;105558;1275;97875;-75
2022/05/30 06:44:06;;;;;;;;;;;;;;;12.47;73.40;99470.08;105465;1274;124879;-72
2022/05/30 06:46:53;;;;;;;;;;;;;;;12.49;73.46;99470.84;105624;1275;107496;-72
2022/05/30 06:49:39;;;;;;;;;;;;;;;12.53;73.56;99471.67;105683;1274;125262;-72
2022/05/30 06:52:09;;;;;;;;;;;;;;;12.56;73.47;99473.25;106965;1274;97863;-72
2022/05/30 06:54:37;;;;;;;;;;;;;;;12.59;73.33;99474.54;105570;1274;98562;-71
2022/05/30 06:59:52;;;;;;;;;;;;;;;12.67;73.58;99471.99;105819;1276;110805;-71
2022/05/30 07:02:19;;;;;;;;;;;;;;;12.69;73.55;99471.85;105481;1276;126330;-71
2022/05/30 07:05:08;;;;;;;;;;;;;;;12.69;73.25;99469.04;105321;1274;98278;-71
2022/05/30 07:07:56;;;;;;;;;;;;;;;12.79;73.26;99469.96;106047;1274;126939;-71
2022/05/30 07:10:42;;;;;;;;;;;;;;;12.86;73.02;99469.95;107117;1274;112186;-71
2022/05/30 07:13:20;;;;;;;;;;;;;;;12.88;72.81;99465.98;106889;1274;126597;-71
2022/05/30 07:15:50;;;;;;;;;;;;;;;12.90;72.67;99467.77;107040;1274;108928;-71
2022/05/30 07:18:24;;;;;;;;;;;;;;;12.92;72.68;99469.42;107012;1274;96227;-71
2022/05/30 07:20:57;;;;;;;;;;;;;;;12.95;72.89;99469.42;106934;1274;125637;-71
2022/05/30 07:23:28;;;;;;;;;;;;;;;13.01;72.58;99471.21;106525;1274;111442;-73
2022/05/30 07:26:17;;;;;;;;;;;;;;;13.05;72.60;99472.38;105532;1274;125648;-72
2022/05/30 07:29:05;;;;;;;;;;;;;;;13.11;72.75;99476.08;105288;1274;107340;-72
2022/05/30 07:31:56;;;;;;;;;;;;;;;13.14;72.46;99475.55;105372;1274;126102;-71
2022/05/30 07:34:42;;;;;;;;;;;;;;;13.12;72.12;99476.02;105671;1274;97836;-71
2022/05/30 07:37:29;;;;;;;;;;;;;;;13.10;71.99;99473.85;105542;1274;125164;-71
2022/05/30 07:40:15;;;;;;;;;;;;;;;13.10;72.26;99476.64;105549;1274;108301;-71
2022/05/30 07:42:55;;;;;;;;;;;;;;;13.14;72.35;99474.34;105582;1274;108906;-72
2022/05/30 07:45:38;;;;;;;;;;;;;;;13.20;72.59;99476.48;105623;1273;97841;-72
2022/05/30 07:48:24;;;;;;;;;;;;;;;13.22;72.41;99476.37;105696;1274;97944;-72
2022/05/30 07:51:21;;;;;;;;;;;;;;;13.20;72.20;99478.05;105197;1278;126669;-72
2022/05/30 07:54:00;;;;;;;;;;;;;;;13.19;72.18;99475.49;105536;1275;109014;-72
2022/05/30 07:56:34;;;;;;;;;;;;;;;13.17;72.33;99471.56;105543;1274;125118;-71
2022/05/30 07:59:03;;;;;;;;;;;;;;;13.14;72.46;99472.26;105514;1275;98018;-71
2022/05/30 08:01:30;;;;;;;;;;;;;;;13.12;72.35;99472.52;105320;1275;125039;-71
2022/05/30 08:03:58;;;;;;;;;;;;;;;13.09;72.13;99471.29;107072;1274;112467;-71
2022/05/30 08:06:44;;;;;;;;;;;;;;;13.05;71.93;99468.35;107191;1274;107639;-71
2022/05/30 08:09:31;;;;;;;;;;;;;;;13.03;71.99;99467.63;107010;1274;124714;-71
2022/05/30 08:12:06;;;;;;;;;;;;;;;13.05;72.26;99465.75;106990;1274;96201;-72
2022/05/30 08:14:53;;;;;;;;;;;;;;;13.06;72.08;99467.42;107023;1274;125164;-72
2022/05/30 08:17:22;;;;;;;;;;;;;;;13.04;71.90;99468.77;107091;1274;112568;-72
2022/05/30 08:19:50;;;;;;;;;;;;;;;13.03;72.01;99469.69;106887;1274;126013;-69
2022/05/30 08:22:22;;;;;;;;;;;;;;;13.02;71.95;99472.52;106943;1274;109206;-72
2022/05/30 08:24:51;;;;;;;;;;;;;;;13.04;71.96;99475.40;106942;1274;96144;-72
2022/05/30 08:27:20;;;;;;;;;;;;;;;13.09;72.20;99475.10;106943;1274;125753;-71
2022/05/30 08:29:50;;;;;;;;;;;;;;;13.21;72.40;99472.56;106960;1275;112536;-70
2022/05/30 08:32:17;;;;;;;;;;;;;;;13.30;72.03;99470.50;106957;1274;126394;-71
2022/05/30 08:35:07;;;;;;;;;;;;;;;13.37;71.67;99467.84;106798;1274;109005;-71
2022/05/30 08:37:37;;;;;;;;;;;;;;;13.44;71.73;99467.78;106932;1274;126916;-72
2022/05/30 08:42:54;;;;;;;;;;;;;;;13.61;71.14;99467.54;106956;1274;112702;-72
2022/05/30 08:45:34;;;;;;;;;;;;;;;13.67;71.39;99471.73;106999;1274;107877;-72
2022/05/30 08:48:37;;;;;;;;;;;;;;;13.76;71.43;99471.39;107079;1274;109055;-72
2022/05/30 08:51:12;;;;;;;;;;;;;;;13.82;70.95;99473.46;107011;1274;126503;-72
2022/05/30 08:53:53;;;;;;;;;;;;;;;13.86;70.66;99471.85;107095;1274;95941;-72
2022/05/30 08:56:24;;;;;;;;;;;;;;;13.87;70.11;99471.05;105878;1274;124853;-72
2022/05/30 08:59:20;;;;;;;;;;;;;;;13.88;70.53;99470.17;107148;1274;107879;-71
2022/05/30 09:01:50;;;;;;;;;;;;;;;13.97;70.83;99463.37;106835;1265;124992;-70
2022/05/30 09:04:39;;;;;;;;;;;;;;;14.04;70.62;99464.36;106841;1277;95910;-71
2022/05/30 09:07:09;;;;;;;;;;;;;;;14.07;69.99;99465.55;106938;1277;124688;-69
2022/05/30 09:09:41;;;;;;;;;;;;;;;14.08;69.73;99462.67;106898;1277;111419;-72
2022/05/30 09:12:18;;;;;;;;;;;;;;;14.13;70.17;99460.63;106791;1276;109356;-71
2022/05/30 09:15:05;;;;;;;;;;;;;;;14.14;69.93;99460.73;105344;1277;125941;-72
2022/05/30 09:17:35;;;;;;;;;;;;;;;14.12;69.88;99460.37;105456;1277;97850;-71
2022/05/30 09:20:06;;;;;;;;;;;;;;;14.04;69.70;99460.66;105424;1276;125424;-71
2022/05/30 09:22:35;;;;;;;;;;;;;;;13.98;69.85;99466.09;107026;1276;112229;-71
2022/05/30 09:27:59;;;;;;;;;;;;;;;13.91;69.89;99467.34;106923;1276;108753;-72
2022/05/30 09:30:50;;;;;;;;;;;;;;;13.86;70.15;99468.52;107096;1274;96832;-71
2022/05/30 09:34:32;;;;;;;;;;;;;;;13.86;70.44;99469.08;107102;1274;96396;-72
2022/05/30 09:37:26;;;;;;;;;;;;;;;13.90;70.87;99473.89;106949;1275;124969;-71
2022/05/30 09:40:06;;;;;;;;;;;;;;;13.90;70.48;99473.55;106402;1277;108604;-71
2022/05/30 09:42:37;;;;;;;;;;;;;;;13.92;70.56;99467.47;107077;1275;108944;-71
2022/05/30 09:45:11;;;;;;;;;;;;;;;14.06;70.54;99467.54;106491;1276;126057;-70
2022/05/30 09:47:58;;;;;;;;;;;;;;;14.21;70.64;99464.90;105605;1274;97852;-71
2022/05/30 09:50:40;;;;;;;;;;;;;;;14.37;70.49;99465.33;106560;1274;124663;-71
2022/05/30 09:53:07;;;;;;;;;;;;;;;14.54;70.50;99463.27;105538;1275;108119;-70
2022/05/30 09:55:38;;;;;;;;;;;;;;;14.73;69.94;99465.10;106994;1275;125130;-70
2022/05/30 09:58:11;;;;;;;;;;;;;;;14.90;69.62;99466.66;107020;1276;97388;-71
2022/05/30 10:01:05;;;;;;;;;;;;;;;15.09;68.82;99466.52;106825;1274;96356;-71
2022/05/30 10:03:36;;;;;;;;;;;;;;;15.23;68.33;99466.17;106900;1274;111603;-70
2022/05/30 10:06:24;;;;;;;;;;;;;;;15.39;68.26;99460.95;107083;1276;107538;-72
2022/05/30 10:09:09;;;;;;;;;;;;;;;15.54;68.10;99464.52;106878;1274;125448;-71
2022/05/30 10:11:37;;;;;;;;;;;;;;;15.71;67.52;99464.98;106741;1276;96407;-71
2022/05/30 10:14:20;;;;;;;;;;;;;;;15.91;67.12;99464.94;106636;1277;125797;-72
2022/05/30 10:17:13;;;;;;;;;;;;;;;16.09;66.50;99464.40;106974;1275;112691;-72
2022/05/30 10:19:47;;;;;;;;;;;;;;;16.21;66.11;99463.77;106526;1277;126228;-71
2022/05/30 10:28:44;;;;;;;;;;;;;;;16.65;64.87;99469.32;107012;1276;96860;-73
2022/05/30 10:31:39;;;;;;;;;;;;;;;16.75;64.12;99468.11;106889;1276;125359;-72
2022/05/30 10:34:18;;;;;;;;;;;;;;;16.75;63.47;99473.91;106585;1277;107915;-70
2022/05/30 10:37:00;;;;;;;;;;;;;;;16.70;63.42;99473.95;105442;1278;108970;-73
2022/05/30 10:39:43;;;;;;;;;;;;;;;16.71;62.80;99477.90;106807;1276;124653;-71
2022/05/30 10:42:14;;;;;;;;;;;;;;;16.76;62.58;99478.80;105514;1277;97867;-72
2022/05/30 10:44:43;;;;;;;;;;;;;;;16.75;62.68;99481.27;105258;1276;297245;-71
2022/05/30 10:47:16;;;;;;;;;;;;;;;16.81;62.91;99487.04;105555;1276;108694;-70
2022/05/30 10:49:46;;;;;;;;;;;;;;;16.74;62.08;99488.23;106728;1276;124494;-71
2022/05/30 10:52:20;;;;;;;;;;;;;;;16.61;61.61;99490.45;106948;1276;96338;-71
2022/05/30 10:54:55;;;;;;;;;;;;;;;16.46;61.72;99494.50;106966;1276;96410;-72
2022/05/30 10:57:26;;;;;;;;;;;;;;;16.36;62.37;99496.29;106895;1276;124801;-72
2022/05/30 10:59:57;;;;;;;;;;;;;;;16.29;62.27;99497.79;106850;1276;108920;-72
2022/05/30 11:02:29;;;;;;;;;;;;;;;16.16;61.96;99498.48;106818;1275;125477;-72
2022/05/30 11:05:01;;;;;;;;;;;;;;;16.05;62.02;99502.21;106905;1276;96348;-72
2022/05/30 11:07:41;;;;;;;;;;;;;;;15.96;62.03;99501.36;106753;1276;125061;-72
2022/05/30 11:10:14;;;;;;;;;;;;;;;15.92;62.12;99497.27;106907;1276;111545;-72
2022/05/30 11:12:43;;;;;;;;;;;;;;;15.91;61.98;99495.07;107039;1276;108125;-72
2022/05/30 11:15:14;;;;;;;;;;;;;;;15.92;61.89;99498.29;106728;1276;125233;-71
2022/05/30 11:18:40;;;;;;;;;;;;;;;16.07;62.12;99495.56;106553;1275;96586;-72
2022/05/30 11:21:38;;;;;;;;;;;;;;;16.26;62.07;99491.81;106707;1276;124642;-72
2022/05/30 11:24:06;;;;;;;;;;;;;;;16.49;61.44;99498.34;106956;1276;112568;-72
2022/05/30 11:26:45;;;;;;;;;;;;;;;16.69;60.55;99497.89;106939;1276;125280;-73
2022/05/30 11:29:29;;;;;;;;;;;;;;;16.80;60.43;99500.96;107005;1275;109096;-73
2022/05/30 11:32:01;;;;;;;;;;;;;;;16.90;60.74;99499.75;106841;1274;124722;-73
2022/05/30 11:34:39;;;;;;;;;;;;;;;16.97;59.88;99498.20;107034;1274;96298;-72
2022/05/30 11:37:23;;;;;;;;;;;;;;;16.96;58.78;99497.92;107079;1276;111574;-73
2022/05/30 11:40:01;;;;;;;;;;;;;;;16.87;58.25;99500.29;106321;1275;108939;-71
2022/05/30 11:42:34;;;;;;;;;;;;;;;16.87;58.35;99502.59;106911;1276;108200;-72
2022/05/30 11:45:08;;;;;;;;;;;;;;;16.87;58.13;99498.30;106920;1274;124331;-72
2022/05/30 11:47:50;;;;;;;;;;;;;;;16.90;57.95;99501.10;105892;1275;97961;-72
2022/05/30 11:50:24;;;;;;;;;;;;;;;16.95;57.85;99503.98;105685;1276;124096;-72
2022/05/30 11:53:06;;;;;;;;;;;;;;;16.89;57.47;99502.59;105511;1276;109042;-74
2022/05/30 11:55:41;;;;;;;;;;;;;;;16.88;57.70;99503.73;105066;1281;124584;-73
2022/05/30 11:58:10;;;;;;;;;;;;;;;16.88;57.85;99502.64;105154;1280;97864;-73
2022/05/30 12:00:43;;;;;;;;;;;;;;;17.03;57.80;99501.95;106526;1279;96351;-72
2022/05/30 12:03:29;;;;;;;;;;;;;;;17.22;57.12;99502.70;105729;1281;124207;-72
2022/05/30 12:06:17;;;;;;;;;;;;;;;17.32;56.11;99502.52;105220;1280;109191;-73
2022/05/30 12:09:02;;;;;;;;;;;;;;;17.33;55.85;99502.64;105020;1281;126997;-72
2022/05/30 12:11:46;;;;;;;;;;;;;;;17.41;55.93;99504.55;105097;1281;97823;-73
2022/05/30 12:14:29;;;;;;;;;;;;;;;17.41;55.82;99506.97;104964;1281;124209;-72
2022/05/30 12:17:02;;;;;;;;;;;;;;;17.31;55.60;99509.83;106040;1281;112173;-73
2022/05/30 12:25:47;;;;;;;;;;;;;;;16.64;56.48;99515.73;106597;1280;124269;-74
2022/05/30 12:28:34;;;;;;;;;;;;;;;16.52;56.33;99511.98;106747;1281;95808;-74
2022/05/30 12:31:03;;;;;;;;;;;;;;;16.46;56.75;99510.14;106042;1281;111413;-72
2022/05/30 12:33:47;;;;;;;;;;;;;;;16.44;56.44;99510.41;105703;1276;124138;-73
2022/05/30 12:36:36;;;;;;;;;;;;;;;16.34;56.79;99507.92;105763;1276;109990;-74
2022/05/30 12:39:10;;;;;;;;;;;;;;;16.22;57.19;99516.45;105888;1274;124270;-73
2022/05/30 12:41:48;;;;;;;;;;;;;;;16.03;57.45;99516.36;105921;1275;97877;-73
2022/05/30 12:44:24;;;;;;;;;;;;;;;15.88;57.97;99517.71;105821;1276;124406;-74
2022/05/30 12:46:53;;;;;;;;;;;;;;;15.71;58.09;99522.28;107294;1276;108920;-74
2022/05/30 12:49:30;;;;;;;;;;;;;;;15.54;57.79;99525.50;107279;1276;124449;-74
2022/05/30 12:52:01;;;;;;;;;;;;;;;15.38;57.63;99525.05;106046;1276;97830;-74
2022/05/30 12:54:34;;;;;;;;;;;;;;;15.29;57.88;99522.20;105923;1276;97841;-73
2022/05/30 12:57:04;;;;;;;;;;;;;;;15.12;58.36;99527.60;106950;1276;124549;-72
2022/05/30 12:59:34;;;;;;;;;;;;;;;15.00;58.78;99525.37;107246;1276;108412;-73
2022/05/30 13:02:04;;;;;;;;;;;;;;;14.85;58.83;99534.39;105822;1276;124809;-73
2022/05/30 13:04:35;;;;;;;;;;;;;;;14.67;58.48;99531.46;105916;1274;97864;-73
2022/05/30 13:07:16;;;;;;;;;;;;;;;14.51;58.93;99539.58;105913;1274;97819;-73
2022/05/30 13:09:52;;;;;;;;;;;;;;;14.41;59.65;99552.21;105882;1276;112564;-73
2022/05/30 13:12:23;;;;;;;;;;;;;;;14.33;59.90;99556.50;105876;1276;108343;-72
2022/05/30 13:15:05;;;;;;;;;;;;;;;14.24;60.14;99559.48;105872;1274;125151;-72
2022/05/30 13:17:38;;;;;;;;;;;;;;;14.15;60.39;99559.80;105950;1276;97828;-74
2022/05/30 13:20:08;;;;;;;;;;;;;;;14.05;60.87;99565.66;105917;1276;123975;-73
2022/05/30 13:22:39;;;;;;;;;;;;;;;13.93;61.28;99579.95;107427;1276;113331;-74
2022/05/30 13:25:09;;;;;;;;;;;;;;;13.81;61.62;99574.02;106913;1276;109009;-73
2022/05/30 13:27:37;;;;;;;;;;;;;;;13.71;61.70;99582.83;106085;1276;108736;-72
2022/05/30 13:30:07;;;;;;;;;;;;;;;13.65;62.00;99581.20;105911;1276;97845;-73
2022/05/30 13:32:35;;;;;;;;;;;;;;;13.65;62.19;99588.05;106827;1276;124352;-74
2022/05/30 13:35:05;;;;;;;;;;;;;;;13.62;62.28;99593.56;105996;1276;112942;-73